sensor_id;sensor_type;location;lat;lon;timestamp;P1;durP1;ratioP1;P2;durP2;ratioP2
36651;SDS011;53334;51.976;20.144;2023-12-29T00:00:06;9.25;;;7.47;;
36651;SDS011;53334;51.976;20.144;2023-12-29T00:02:43;9.32;;;7.68;;
36651;SDS011;53334;51.976;20.144;2023-12-29T00:05:16;9.55;;;7.70;;
36651;SDS011;53334;51.976;20.144;2023-12-29T00:07:50;10.07;;;7.22;;
36651;SDS011;53334;51.976;20.144;2023-12-29T00:10:23;9.82;;;8.52;;
36651;SDS011;53334;51.976;20.144;2023-12-29T00:12:56;10.10;;;7.25;;
36651;SDS011;53334;51.976;20.144;2023-12-29T00:15:29;9.65;;;7.68;;
36651;SDS011;53334;51.976;20.144;2023-12-29T00:18:05;9.20;;;7.53;;
36651;SDS011;53334;51.976;20.144;2023-12-29T00:20:38;9.30;;;7.28;;
36651;SDS011;53334;51.976;20.144;2023-12-29T00:23:12;9.48;;;7.03;;
36651;SDS011;53334;51.976;20.144;2023-12-29T00:25:46;9.35;;;7.00;;
36651;SDS011;53334;51.976;20.144;2023-12-29T00:28:19;10.02;;;7.60;;
36651;SDS011;53334;51.976;20.144;2023-12-29T00:30:52;8.05;;;6.47;;
36651;SDS011;53334;51.976;20.144;2023-12-29T00:33:35;8.82;;;7.10;;
36651;SDS011;53334;51.976;20.144;2023-12-29T00:36:09;9.10;;;7.25;;
36651;SDS011;53334;51.976;20.144;2023-12-29T00:38:47;11.57;;;8.23;;
36651;SDS011;53334;51.976;20.144;2023-12-29T00:41:21;9.40;;;8.00;;
36651;SDS011;53334;51.976;20.144;2023-12-29T00:43:55;11.00;;;8.02;;
36651;SDS011;53334;51.976;20.144;2023-12-29T00:46:28;8.65;;;7.00;;
36651;SDS011;53334;51.976;20.144;2023-12-29T00:49:02;9.00;;;7.10;;
36651;SDS011;53334;51.976;20.144;2023-12-29T00:51:38;10.55;;;8.25;;
36651;SDS011;53334;51.976;20.144;2023-12-29T00:54:12;10.27;;;7.35;;
36651;SDS011;53334;51.976;20.144;2023-12-29T00:56:48;9.63;;;7.43;;
36651;SDS011;53334;51.976;20.144;2023-12-29T00:59:21;9.65;;;7.50;;
36651;SDS011;53334;51.976;20.144;2023-12-29T01:01:54;8.40;;;6.95;;
36651;SDS011;53334;51.976;20.144;2023-12-29T01:04:29;8.52;;;7.10;;
36651;SDS011;53334;51.976;20.144;2023-12-29T01:07:02;9.75;;;7.38;;
36651;SDS011;53334;51.976;20.144;2023-12-29T01:09:37;8.50;;;6.35;;
36651;SDS011;53334;51.976;20.144;2023-12-29T01:12:11;9.00;;;7.03;;
36651;SDS011;53334;51.976;20.144;2023-12-29T01:14:46;10.00;;;7.15;;
36651;SDS011;53334;51.976;20.144;2023-12-29T01:17:19;9.18;;;6.82;;
36651;SDS011;53334;51.976;20.144;2023-12-29T01:19:55;8.63;;;7.10;;
36651;SDS011;53334;51.976;20.144;2023-12-29T01:22:28;8.35;;;7.22;;
36651;SDS011;53334;51.976;20.144;2023-12-29T01:25:01;9.60;;;7.50;;
36651;SDS011;53334;51.976;20.144;2023-12-29T01:27:35;9.10;;;7.22;;
36651;SDS011;53334;51.976;20.144;2023-12-29T01:30:08;8.75;;;6.72;;
36651;SDS011;53334;51.976;20.144;2023-12-29T01:35:16;8.55;;;6.57;;
36651;SDS011;53334;51.976;20.144;2023-12-29T01:37:51;9.00;;;7.05;;
36651;SDS011;53334;51.976;20.144;2023-12-29T01:40:24;9.18;;;7.65;;
36651;SDS011;53334;51.976;20.144;2023-12-29T01:42:57;8.63;;;6.95;;
36651;SDS011;53334;51.976;20.144;2023-12-29T01:45:30;7.50;;;6.47;;
36651;SDS011;53334;51.976;20.144;2023-12-29T01:48:10;9.98;;;7.53;;
36651;SDS011;53334;51.976;20.144;2023-12-29T01:50:46;9.18;;;7.30;;
36651;SDS011;53334;51.976;20.144;2023-12-29T01:53:19;8.52;;;6.65;;
36651;SDS011;53334;51.976;20.144;2023-12-29T01:56:09;8.23;;;6.75;;
36651;SDS011;53334;51.976;20.144;2023-12-29T01:58:43;8.90;;;6.85;;
36651;SDS011;53334;51.976;20.144;2023-12-29T02:01:16;8.77;;;6.95;;
36651;SDS011;53334;51.976;20.144;2023-12-29T02:03:51;9.48;;;6.72;;
36651;SDS011;53334;51.976;20.144;2023-12-29T02:06:25;9.23;;;6.53;;
36651;SDS011;53334;51.976;20.144;2023-12-29T02:09:02;8.38;;;7.15;;
36651;SDS011;53334;51.976;20.144;2023-12-29T02:11:36;9.38;;;7.20;;
36651;SDS011;53334;51.976;20.144;2023-12-29T02:14:09;8.52;;;7.25;;
36651;SDS011;53334;51.976;20.144;2023-12-29T02:19:31;10.43;;;7.75;;
36651;SDS011;53334;51.976;20.144;2023-12-29T02:22:12;8.13;;;6.95;;
36651;SDS011;53334;51.976;20.144;2023-12-29T02:24:48;8.57;;;6.75;;
36651;SDS011;53334;51.976;20.144;2023-12-29T02:27:34;7.10;;;6.03;;
36651;SDS011;53334;51.976;20.144;2023-12-29T02:30:18;8.20;;;6.65;;
36651;SDS011;53334;51.976;20.144;2023-12-29T02:32:55;8.90;;;6.60;;
36651;SDS011;53334;51.976;20.144;2023-12-29T02:35:35;9.70;;;7.05;;
36651;SDS011;53334;51.976;20.144;2023-12-29T02:38:13;10.00;;;7.40;;
36651;SDS011;53334;51.976;20.144;2023-12-29T02:40:48;8.20;;;6.68;;
36651;SDS011;53334;51.976;20.144;2023-12-29T02:43:22;7.32;;;6.03;;
36651;SDS011;53334;51.976;20.144;2023-12-29T02:45:55;8.73;;;6.80;;
36651;SDS011;53334;51.976;20.144;2023-12-29T02:48:29;8.77;;;6.63;;
36651;SDS011;53334;51.976;20.144;2023-12-29T02:51:02;9.38;;;7.47;;
36651;SDS011;53334;51.976;20.144;2023-12-29T02:53:36;8.40;;;6.82;;
36651;SDS011;53334;51.976;20.144;2023-12-29T02:56:10;8.75;;;7.18;;
36651;SDS011;53334;51.976;20.144;2023-12-29T02:58:44;9.70;;;7.35;;
36651;SDS011;53334;51.976;20.144;2023-12-29T03:01:19;9.35;;;7.05;;
36651;SDS011;53334;51.976;20.144;2023-12-29T03:03:52;7.30;;;5.75;;
36651;SDS011;53334;51.976;20.144;2023-12-29T03:06:26;7.93;;;7.13;;
36651;SDS011;53334;51.976;20.144;2023-12-29T03:08:59;8.35;;;6.50;;
36651;SDS011;53334;51.976;20.144;2023-12-29T03:11:33;8.77;;;6.43;;
36651;SDS011;53334;51.976;20.144;2023-12-29T03:14:07;8.50;;;6.78;;
36651;SDS011;53334;51.976;20.144;2023-12-29T03:16:40;7.05;;;5.90;;
36651;SDS011;53334;51.976;20.144;2023-12-29T03:19:13;7.82;;;6.03;;
36651;SDS011;53334;51.976;20.144;2023-12-29T03:21:46;8.50;;;5.93;;
36651;SDS011;53334;51.976;20.144;2023-12-29T03:24:20;7.10;;;6.35;;
36651;SDS011;53334;51.976;20.144;2023-12-29T03:26:54;7.72;;;6.22;;
36651;SDS011;53334;51.976;20.144;2023-12-29T03:29:28;8.43;;;6.57;;
36651;SDS011;53334;51.976;20.144;2023-12-29T03:32:01;10.60;;;6.75;;
36651;SDS011;53334;51.976;20.144;2023-12-29T03:34:34;7.78;;;6.35;;
36651;SDS011;53334;51.976;20.144;2023-12-29T03:37:08;8.45;;;6.50;;
36651;SDS011;53334;51.976;20.144;2023-12-29T03:39:41;8.02;;;6.78;;
36651;SDS011;53334;51.976;20.144;2023-12-29T03:42:17;9.38;;;7.03;;
36651;SDS011;53334;51.976;20.144;2023-12-29T03:44:50;7.53;;;6.20;;
36651;SDS011;53334;51.976;20.144;2023-12-29T03:47:23;7.65;;;6.28;;
36651;SDS011;53334;51.976;20.144;2023-12-29T03:49:56;7.95;;;6.22;;
36651;SDS011;53334;51.976;20.144;2023-12-29T03:52:30;7.93;;;6.18;;
36651;SDS011;53334;51.976;20.144;2023-12-29T03:55:03;7.22;;;6.18;;
36651;SDS011;53334;51.976;20.144;2023-12-29T03:57:39;7.82;;;5.97;;
36651;SDS011;53334;51.976;20.144;2023-12-29T04:00:13;8.30;;;6.32;;
36651;SDS011;53334;51.976;20.144;2023-12-29T04:02:47;6.75;;;5.55;;
36651;SDS011;53334;51.976;20.144;2023-12-29T04:05:20;9.30;;;6.93;;
36651;SDS011;53334;51.976;20.144;2023-12-29T04:07:53;6.95;;;6.25;;
36651;SDS011;53334;51.976;20.144;2023-12-29T04:10:27;6.55;;;5.53;;
36651;SDS011;53334;51.976;20.144;2023-12-29T04:13:02;8.77;;;7.05;;
36651;SDS011;53334;51.976;20.144;2023-12-29T04:15:36;9.23;;;6.43;;
36651;SDS011;53334;51.976;20.144;2023-12-29T04:18:09;6.68;;;5.60;;
36651;SDS011;53334;51.976;20.144;2023-12-29T04:20:44;8.63;;;6.30;;
36651;SDS011;53334;51.976;20.144;2023-12-29T04:23:17;8.00;;;6.45;;
36651;SDS011;53334;51.976;20.144;2023-12-29T04:25:50;8.75;;;6.85;;
36651;SDS011;53334;51.976;20.144;2023-12-29T04:28:25;6.80;;;6.15;;
36651;SDS011;53334;51.976;20.144;2023-12-29T04:30:59;8.25;;;6.43;;
36651;SDS011;53334;51.976;20.144;2023-12-29T04:33:33;8.90;;;6.30;;
36651;SDS011;53334;51.976;20.144;2023-12-29T04:36:06;9.77;;;7.20;;
36651;SDS011;53334;51.976;20.144;2023-12-29T04:38:40;7.88;;;5.45;;
36651;SDS011;53334;51.976;20.144;2023-12-29T04:41:16;8.32;;;6.60;;
36651;SDS011;53334;51.976;20.144;2023-12-29T04:43:51;8.27;;;6.70;;
36651;SDS011;53334;51.976;20.144;2023-12-29T04:46:25;6.72;;;5.47;;
36651;SDS011;53334;51.976;20.144;2023-12-29T04:48:58;7.60;;;6.43;;
36651;SDS011;53334;51.976;20.144;2023-12-29T04:51:31;7.75;;;6.53;;
36651;SDS011;53334;51.976;20.144;2023-12-29T04:54:05;7.88;;;6.28;;
36651;SDS011;53334;51.976;20.144;2023-12-29T04:56:38;7.03;;;5.85;;
36651;SDS011;53334;51.976;20.144;2023-12-29T04:59:13;7.75;;;6.20;;
36651;SDS011;53334;51.976;20.144;2023-12-29T05:01:49;7.53;;;5.78;;
36651;SDS011;53334;51.976;20.144;2023-12-29T05:04:23;6.78;;;6.07;;
36651;SDS011;53334;51.976;20.144;2023-12-29T05:06:57;8.57;;;6.90;;
36651;SDS011;53334;51.976;20.144;2023-12-29T05:09:30;9.38;;;6.57;;
36651;SDS011;53334;51.976;20.144;2023-12-29T05:12:04;8.88;;;6.45;;
36651;SDS011;53334;51.976;20.144;2023-12-29T05:14:39;6.88;;;5.80;;
36651;SDS011;53334;51.976;20.144;2023-12-29T05:17:12;7.80;;;5.85;;
36651;SDS011;53334;51.976;20.144;2023-12-29T05:19:46;8.15;;;5.97;;
36651;SDS011;53334;51.976;20.144;2023-12-29T05:22:19;8.30;;;6.65;;
36651;SDS011;53334;51.976;20.144;2023-12-29T05:24:52;8.23;;;6.47;;
36651;SDS011;53334;51.976;20.144;2023-12-29T05:27:29;8.45;;;6.13;;
36651;SDS011;53334;51.976;20.144;2023-12-29T05:30:06;7.45;;;6.00;;
36651;SDS011;53334;51.976;20.144;2023-12-29T05:32:39;8.68;;;6.60;;
36651;SDS011;53334;51.976;20.144;2023-12-29T05:35:13;6.47;;;5.38;;
36651;SDS011;53334;51.976;20.144;2023-12-29T05:37:46;7.50;;;6.18;;
36651;SDS011;53334;51.976;20.144;2023-12-29T05:40:19;6.75;;;6.05;;
36651;SDS011;53334;51.976;20.144;2023-12-29T05:42:53;7.25;;;5.88;;
36651;SDS011;53334;51.976;20.144;2023-12-29T05:45:27;6.70;;;5.35;;
36651;SDS011;53334;51.976;20.144;2023-12-29T05:48:00;7.68;;;5.97;;
36651;SDS011;53334;51.976;20.144;2023-12-29T05:50:34;8.23;;;6.32;;
36651;SDS011;53334;51.976;20.144;2023-12-29T05:53:07;7.55;;;6.18;;
36651;SDS011;53334;51.976;20.144;2023-12-29T05:55:41;8.40;;;6.03;;
36651;SDS011;53334;51.976;20.144;2023-12-29T05:58:16;7.53;;;6.50;;
36651;SDS011;53334;51.976;20.144;2023-12-29T06:00:51;7.72;;;6.32;;
36651;SDS011;53334;51.976;20.144;2023-12-29T06:03:24;7.15;;;6.20;;
36651;SDS011;53334;51.976;20.144;2023-12-29T06:05:57;8.35;;;6.72;;
36651;SDS011;53334;51.976;20.144;2023-12-29T06:08:31;8.10;;;6.15;;
36651;SDS011;53334;51.976;20.144;2023-12-29T06:11:04;6.00;;;5.05;;
36651;SDS011;53334;51.976;20.144;2023-12-29T06:13:37;9.75;;;6.68;;
36651;SDS011;53334;51.976;20.144;2023-12-29T06:16:18;8.20;;;6.35;;
36651;SDS011;53334;51.976;20.144;2023-12-29T06:18:51;7.93;;;6.43;;
36651;SDS011;53334;51.976;20.144;2023-12-29T06:21:25;8.23;;;6.55;;
36651;SDS011;53334;51.976;20.144;2023-12-29T06:23:58;7.72;;;5.85;;
36651;SDS011;53334;51.976;20.144;2023-12-29T06:26:31;7.93;;;6.20;;
36651;SDS011;53334;51.976;20.144;2023-12-29T06:29:04;7.95;;;5.88;;
36651;SDS011;53334;51.976;20.144;2023-12-29T06:31:40;6.45;;;5.43;;
36651;SDS011;53334;51.976;20.144;2023-12-29T06:34:15;7.55;;;5.88;;
36651;SDS011;53334;51.976;20.144;2023-12-29T06:36:48;5.97;;;5.38;;
36651;SDS011;53334;51.976;20.144;2023-12-29T06:39:21;7.00;;;5.68;;
36651;SDS011;53334;51.976;20.144;2023-12-29T06:41:55;8.43;;;6.40;;
36651;SDS011;53334;51.976;20.144;2023-12-29T06:44:28;8.40;;;6.50;;
36651;SDS011;53334;51.976;20.144;2023-12-29T06:47:02;7.07;;;6.13;;
36651;SDS011;53334;51.976;20.144;2023-12-29T06:49:37;9.15;;;6.55;;
36651;SDS011;53334;51.976;20.144;2023-12-29T06:52:12;6.35;;;5.35;;
36651;SDS011;53334;51.976;20.144;2023-12-29T06:54:46;9.20;;;6.97;;
36651;SDS011;53334;51.976;20.144;2023-12-29T06:57:19;8.02;;;5.82;;
36651;SDS011;53334;51.976;20.144;2023-12-29T06:59:52;6.82;;;5.82;;
36651;SDS011;53334;51.976;20.144;2023-12-29T07:02:27;6.57;;;5.70;;
36651;SDS011;53334;51.976;20.144;2023-12-29T07:05:00;6.32;;;5.43;;
36651;SDS011;53334;51.976;20.144;2023-12-29T07:07:34;6.57;;;5.88;;
36651;SDS011;53334;51.976;20.144;2023-12-29T07:10:07;7.13;;;5.80;;
36651;SDS011;53334;51.976;20.144;2023-12-29T07:12:44;7.78;;;6.80;;
36651;SDS011;53334;51.976;20.144;2023-12-29T07:15:18;7.78;;;6.25;;
36651;SDS011;53334;51.976;20.144;2023-12-29T07:17:53;7.00;;;5.60;;
36651;SDS011;53334;51.976;20.144;2023-12-29T07:20:26;6.30;;;5.57;;
36651;SDS011;53334;51.976;20.144;2023-12-29T07:23:00;6.47;;;5.82;;
36651;SDS011;53334;51.976;20.144;2023-12-29T07:25:33;8.15;;;5.80;;
36651;SDS011;53334;51.976;20.144;2023-12-29T07:28:06;6.05;;;5.25;;
36651;SDS011;53334;51.976;20.144;2023-12-29T07:30:40;7.45;;;5.97;;
36651;SDS011;53334;51.976;20.144;2023-12-29T07:33:14;7.32;;;5.82;;
36651;SDS011;53334;51.976;20.144;2023-12-29T07:35:48;8.73;;;6.50;;
36651;SDS011;53334;51.976;20.144;2023-12-29T07:38:21;8.55;;;5.72;;
36651;SDS011;53334;51.976;20.144;2023-12-29T07:40:54;7.20;;;5.57;;
36651;SDS011;53334;51.976;20.144;2023-12-29T07:43:28;6.10;;;5.05;;
36651;SDS011;53334;51.976;20.144;2023-12-29T07:46:01;6.88;;;5.57;;
36651;SDS011;53334;51.976;20.144;2023-12-29T07:48:36;6.95;;;5.43;;
36651;SDS011;53334;51.976;20.144;2023-12-29T07:51:09;6.95;;;5.55;;
36651;SDS011;53334;51.976;20.144;2023-12-29T07:53:43;6.10;;;5.18;;
36651;SDS011;53334;51.976;20.144;2023-12-29T07:56:16;5.22;;;4.70;;
36651;SDS011;53334;51.976;20.144;2023-12-29T07:58:49;7.32;;;5.57;;
36651;SDS011;53334;51.976;20.144;2023-12-29T08:01:22;7.60;;;6.05;;
36651;SDS011;53334;51.976;20.144;2023-12-29T08:03:57;6.57;;;5.00;;
36651;SDS011;53334;51.976;20.144;2023-12-29T08:06:31;6.95;;;5.57;;
36651;SDS011;53334;51.976;20.144;2023-12-29T08:09:04;7.18;;;6.15;;
36651;SDS011;53334;51.976;20.144;2023-12-29T08:11:38;7.22;;;5.57;;
36651;SDS011;53334;51.976;20.144;2023-12-29T08:14:14;7.38;;;5.45;;
36651;SDS011;53334;51.976;20.144;2023-12-29T08:16:47;7.00;;;5.38;;
36651;SDS011;53334;51.976;20.144;2023-12-29T08:19:22;6.57;;;5.80;;
36651;SDS011;53334;51.976;20.144;2023-12-29T08:21:55;7.47;;;5.22;;
36651;SDS011;53334;51.976;20.144;2023-12-29T08:24:29;7.65;;;6.05;;
36651;SDS011;53334;51.976;20.144;2023-12-29T08:27:02;6.63;;;5.47;;
36651;SDS011;53334;51.976;20.144;2023-12-29T08:32:09;6.05;;;5.43;;
36651;SDS011;53334;51.976;20.144;2023-12-29T08:34:43;6.45;;;5.05;;
36651;SDS011;53334;51.976;20.144;2023-12-29T08:37:16;6.82;;;5.20;;
36651;SDS011;53334;51.976;20.144;2023-12-29T08:39:52;5.45;;;4.80;;
36651;SDS011;53334;51.976;20.144;2023-12-29T08:42:26;6.78;;;5.50;;
36651;SDS011;53334;51.976;20.144;2023-12-29T08:44:59;7.75;;;5.93;;
36651;SDS011;53334;51.976;20.144;2023-12-29T08:47:32;6.00;;;5.20;;
36651;SDS011;53334;51.976;20.144;2023-12-29T08:50:07;6.43;;;5.10;;
36651;SDS011;53334;51.976;20.144;2023-12-29T08:52:41;5.72;;;5.13;;
36651;SDS011;53334;51.976;20.144;2023-12-29T08:55:14;5.85;;;5.25;;
36651;SDS011;53334;51.976;20.144;2023-12-29T08:57:47;6.93;;;5.75;;
36651;SDS011;53334;51.976;20.144;2023-12-29T09:00:21;7.80;;;5.65;;
36651;SDS011;53334;51.976;20.144;2023-12-29T09:02:54;6.38;;;5.60;;
36651;SDS011;53334;51.976;20.144;2023-12-29T09:05:28;7.10;;;5.90;;
36651;SDS011;53334;51.976;20.144;2023-12-29T09:08:02;7.15;;;5.72;;
36651;SDS011;53334;51.976;20.144;2023-12-29T09:10:36;7.10;;;5.60;;
36651;SDS011;53334;51.976;20.144;2023-12-29T09:13:10;5.80;;;5.20;;
36651;SDS011;53334;51.976;20.144;2023-12-29T09:15:43;4.88;;;4.43;;
36651;SDS011;53334;51.976;20.144;2023-12-29T09:18:16;7.15;;;5.53;;
36651;SDS011;53334;51.976;20.144;2023-12-29T09:20:51;5.85;;;5.20;;
36651;SDS011;53334;51.976;20.144;2023-12-29T09:23:24;6.72;;;5.35;;
36651;SDS011;53334;51.976;20.144;2023-12-29T09:25:58;7.75;;;5.30;;
36651;SDS011;53334;51.976;20.144;2023-12-29T09:28:32;7.35;;;5.50;;
36651;SDS011;53334;51.976;20.144;2023-12-29T09:31:05;5.15;;;4.53;;
36651;SDS011;53334;51.976;20.144;2023-12-29T09:33:40;5.93;;;5.05;;
36651;SDS011;53334;51.976;20.144;2023-12-29T09:36:14;5.93;;;4.95;;
36651;SDS011;53334;51.976;20.144;2023-12-29T09:38:48;7.70;;;6.32;;
36651;SDS011;53334;51.976;20.144;2023-12-29T09:41:22;5.47;;;4.97;;
36651;SDS011;53334;51.976;20.144;2023-12-29T09:43:56;7.15;;;5.95;;
36651;SDS011;53334;51.976;20.144;2023-12-29T09:46:31;6.18;;;5.00;;
36651;SDS011;53334;51.976;20.144;2023-12-29T09:49:06;7.63;;;5.55;;
36651;SDS011;53334;51.976;20.144;2023-12-29T09:51:42;6.35;;;5.15;;
36651;SDS011;53334;51.976;20.144;2023-12-29T09:54:16;6.38;;;5.30;;
36651;SDS011;53334;51.976;20.144;2023-12-29T09:56:50;6.30;;;4.75;;
36651;SDS011;53334;51.976;20.144;2023-12-29T09:59:24;6.75;;;6.00;;
36651;SDS011;53334;51.976;20.144;2023-12-29T10:01:59;5.85;;;5.20;;
36651;SDS011;53334;51.976;20.144;2023-12-29T10:04:34;6.65;;;6.05;;
36651;SDS011;53334;51.976;20.144;2023-12-29T10:07:10;8.52;;;6.05;;
36651;SDS011;53334;51.976;20.144;2023-12-29T10:09:50;6.85;;;5.70;;
36651;SDS011;53334;51.976;20.144;2023-12-29T10:12:27;5.40;;;4.60;;
36651;SDS011;53334;51.976;20.144;2023-12-29T10:15:04;6.80;;;6.10;;
36651;SDS011;53334;51.976;20.144;2023-12-29T10:17:43;6.30;;;5.47;;
36651;SDS011;53334;51.976;20.144;2023-12-29T10:20:31;6.25;;;5.55;;
36651;SDS011;53334;51.976;20.144;2023-12-29T10:23:12;6.55;;;5.28;;
36651;SDS011;53334;51.976;20.144;2023-12-29T10:25:49;7.22;;;5.80;;
36651;SDS011;53334;51.976;20.144;2023-12-29T10:28:23;7.90;;;6.15;;
36651;SDS011;53334;51.976;20.144;2023-12-29T10:30:56;6.40;;;5.32;;
36651;SDS011;53334;51.976;20.144;2023-12-29T10:33:30;7.72;;;6.13;;
36651;SDS011;53334;51.976;20.144;2023-12-29T10:36:04;6.95;;;5.30;;
36651;SDS011;53334;51.976;20.144;2023-12-29T10:38:40;7.03;;;5.55;;
36651;SDS011;53334;51.976;20.144;2023-12-29T10:41:14;6.32;;;5.57;;
36651;SDS011;53334;51.976;20.144;2023-12-29T10:43:48;8.00;;;6.43;;
36651;SDS011;53334;51.976;20.144;2023-12-29T10:46:23;5.88;;;4.80;;
36651;SDS011;53334;51.976;20.144;2023-12-29T10:48:59;6.28;;;5.32;;
36651;SDS011;53334;51.976;20.144;2023-12-29T10:51:40;7.85;;;6.00;;
36651;SDS011;53334;51.976;20.144;2023-12-29T10:54:18;7.05;;;5.80;;
36651;SDS011;53334;51.976;20.144;2023-12-29T10:57:00;6.20;;;5.22;;
36651;SDS011;53334;51.976;20.144;2023-12-29T10:59:35;6.50;;;5.30;;
36651;SDS011;53334;51.976;20.144;2023-12-29T11:02:10;5.35;;;4.45;;
36651;SDS011;53334;51.976;20.144;2023-12-29T11:04:46;6.32;;;5.10;;
36651;SDS011;53334;51.976;20.144;2023-12-29T11:07:30;7.28;;;6.18;;
36651;SDS011;53334;51.976;20.144;2023-12-29T11:10:07;7.93;;;5.83;;
36651;SDS011;53334;51.976;20.144;2023-12-29T11:12:41;7.10;;;5.95;;
36651;SDS011;53334;51.976;20.144;2023-12-29T11:17:48;6.82;;;5.07;;
36651;SDS011;53334;51.976;20.144;2023-12-29T11:20:24;6.35;;;5.72;;
36651;SDS011;53334;51.976;20.144;2023-12-29T11:22:58;5.93;;;5.32;;
36651;SDS011;53334;51.976;20.144;2023-12-29T11:25:34;7.63;;;5.97;;
36651;SDS011;53334;51.976;20.144;2023-12-29T11:28:08;6.95;;;5.57;;
36651;SDS011;53334;51.976;20.144;2023-12-29T11:30:43;6.22;;;5.63;;
36651;SDS011;53334;51.976;20.144;2023-12-29T11:33:17;6.88;;;5.18;;
36651;SDS011;53334;51.976;20.144;2023-12-29T11:35:55;6.05;;;4.75;;
36651;SDS011;53334;51.976;20.144;2023-12-29T11:38:36;5.32;;;4.75;;
36651;SDS011;53334;51.976;20.144;2023-12-29T11:41:25;7.47;;;5.22;;
36651;SDS011;53334;51.976;20.144;2023-12-29T11:44:05;5.30;;;4.75;;
36651;SDS011;53334;51.976;20.144;2023-12-29T11:46:39;6.43;;;5.25;;
36651;SDS011;53334;51.976;20.144;2023-12-29T11:49:15;6.00;;;5.07;;
36651;SDS011;53334;51.976;20.144;2023-12-29T11:51:49;6.22;;;5.43;;
36651;SDS011;53334;51.976;20.144;2023-12-29T11:54:23;7.72;;;5.25;;
36651;SDS011;53334;51.976;20.144;2023-12-29T11:56:58;5.80;;;4.88;;
36651;SDS011;53334;51.976;20.144;2023-12-29T11:59:31;5.72;;;5.13;;
36651;SDS011;53334;51.976;20.144;2023-12-29T12:02:04;5.25;;;4.75;;
36651;SDS011;53334;51.976;20.144;2023-12-29T12:04:39;6.68;;;5.07;;
36651;SDS011;53334;51.976;20.144;2023-12-29T12:07:16;5.47;;;4.93;;
36651;SDS011;53334;51.976;20.144;2023-12-29T12:10:28;5.28;;;4.78;;
36651;SDS011;53334;51.976;20.144;2023-12-29T12:13:04;6.65;;;4.82;;
36651;SDS011;53334;51.976;20.144;2023-12-29T12:15:38;5.32;;;4.80;;
36651;SDS011;53334;51.976;20.144;2023-12-29T12:18:12;5.60;;;4.80;;
36651;SDS011;53334;51.976;20.144;2023-12-29T12:20:50;6.63;;;4.65;;
36651;SDS011;53334;51.976;20.144;2023-12-29T12:23:23;5.10;;;4.60;;
36651;SDS011;53334;51.976;20.144;2023-12-29T12:25:59;5.57;;;4.68;;
36651;SDS011;53334;51.976;20.144;2023-12-29T12:28:36;6.43;;;5.03;;
36651;SDS011;53334;51.976;20.144;2023-12-29T12:31:15;5.93;;;4.90;;
36651;SDS011;53334;51.976;20.144;2023-12-29T12:33:53;5.43;;;4.60;;
36651;SDS011;53334;51.976;20.144;2023-12-29T12:36:27;5.68;;;5.03;;
36651;SDS011;53334;51.976;20.144;2023-12-29T12:39:00;5.95;;;5.35;;
36651;SDS011;53334;51.976;20.144;2023-12-29T12:41:34;6.88;;;5.05;;
36651;SDS011;53334;51.976;20.144;2023-12-29T12:44:09;5.75;;;4.95;;
36651;SDS011;53334;51.976;20.144;2023-12-29T12:46:44;5.72;;;4.97;;
36651;SDS011;53334;51.976;20.144;2023-12-29T12:49:23;6.25;;;4.68;;
36651;SDS011;53334;51.976;20.144;2023-12-29T12:51:56;5.28;;;4.75;;
36651;SDS011;53334;51.976;20.144;2023-12-29T12:54:30;5.97;;;5.00;;
36651;SDS011;53334;51.976;20.144;2023-12-29T12:57:06;5.05;;;4.43;;
36651;SDS011;53334;51.976;20.144;2023-12-29T12:59:41;4.95;;;4.47;;
36651;SDS011;53334;51.976;20.144;2023-12-29T13:02:15;5.93;;;5.18;;
36651;SDS011;53334;51.976;20.144;2023-12-29T13:07:22;4.38;;;3.97;;
36651;SDS011;53334;51.976;20.144;2023-12-29T13:09:56;5.43;;;4.75;;
36651;SDS011;53334;51.976;20.144;2023-12-29T13:12:29;5.25;;;4.70;;
36651;SDS011;53334;51.976;20.144;2023-12-29T13:15:08;4.43;;;3.92;;
36651;SDS011;53334;51.976;20.144;2023-12-29T13:17:49;4.68;;;4.18;;
36651;SDS011;53334;51.976;20.144;2023-12-29T13:20:23;5.78;;;4.63;;
36651;SDS011;53334;51.976;20.144;2023-12-29T13:22:56;4.60;;;4.13;;
36651;SDS011;53334;51.976;20.144;2023-12-29T13:25:30;5.07;;;4.07;;
36651;SDS011;53334;51.976;20.144;2023-12-29T13:30:39;4.50;;;3.92;;
36651;SDS011;53334;51.976;20.144;2023-12-29T13:33:15;5.25;;;4.35;;
36651;SDS011;53334;51.976;20.144;2023-12-29T13:35:53;4.57;;;4.07;;
36651;SDS011;53334;51.976;20.144;2023-12-29T13:38:39;5.15;;;3.97;;
36651;SDS011;53334;51.976;20.144;2023-12-29T13:41:18;5.22;;;4.25;;
36651;SDS011;53334;51.976;20.144;2023-12-29T13:43:53;6.18;;;5.10;;
36651;SDS011;53334;51.976;20.144;2023-12-29T13:46:29;5.43;;;4.85;;
36651;SDS011;53334;51.976;20.144;2023-12-29T13:49:03;5.15;;;4.65;;
36651;SDS011;53334;51.976;20.144;2023-12-29T13:51:38;5.60;;;4.65;;
36651;SDS011;53334;51.976;20.144;2023-12-29T13:54:11;4.43;;;4.00;;
36651;SDS011;53334;51.976;20.144;2023-12-29T13:56:52;4.55;;;3.92;;
36651;SDS011;53334;51.976;20.144;2023-12-29T13:59:29;4.65;;;4.13;;
36651;SDS011;53334;51.976;20.144;2023-12-29T14:05:10;4.88;;;4.38;;
36651;SDS011;53334;51.976;20.144;2023-12-29T14:07:48;4.68;;;4.18;;
36651;SDS011;53334;51.976;20.144;2023-12-29T14:10:28;4.68;;;3.97;;
36651;SDS011;53334;51.976;20.144;2023-12-29T14:13:06;5.43;;;4.40;;
36651;SDS011;53334;51.976;20.144;2023-12-29T14:15:40;5.18;;;4.10;;
36651;SDS011;53334;51.976;20.144;2023-12-29T14:18:18;4.82;;;3.70;;
36651;SDS011;53334;51.976;20.144;2023-12-29T14:23:59;5.22;;;4.32;;
36651;SDS011;53334;51.976;20.144;2023-12-29T14:26:33;4.80;;;3.97;;
36651;SDS011;53334;51.976;20.144;2023-12-29T14:29:07;5.78;;;4.57;;
36651;SDS011;53334;51.976;20.144;2023-12-29T14:31:42;4.90;;;4.15;;
36651;SDS011;53334;51.976;20.144;2023-12-29T14:34:17;4.32;;;3.75;;
36651;SDS011;53334;51.976;20.144;2023-12-29T14:36:51;6.25;;;4.75;;
36651;SDS011;53334;51.976;20.144;2023-12-29T14:39:25;4.78;;;4.20;;
36651;SDS011;53334;51.976;20.144;2023-12-29T14:41:58;4.85;;;4.13;;
36651;SDS011;53334;51.976;20.144;2023-12-29T14:44:32;4.40;;;4.00;;
36651;SDS011;53334;51.976;20.144;2023-12-29T14:47:06;4.82;;;4.32;;
36651;SDS011;53334;51.976;20.144;2023-12-29T14:49:40;4.65;;;4.15;;
36651;SDS011;53334;51.976;20.144;2023-12-29T14:52:14;4.35;;;3.95;;
36651;SDS011;53334;51.976;20.144;2023-12-29T14:54:47;4.55;;;3.97;;
36651;SDS011;53334;51.976;20.144;2023-12-29T14:57:20;4.57;;;4.15;;
36651;SDS011;53334;51.976;20.144;2023-12-29T14:59:54;4.78;;;3.75;;
36651;SDS011;53334;51.976;20.144;2023-12-29T15:02:27;4.30;;;3.90;;
36651;SDS011;53334;51.976;20.144;2023-12-29T15:05:02;4.25;;;3.85;;
36651;SDS011;53334;51.976;20.144;2023-12-29T15:07:35;4.55;;;3.90;;
36651;SDS011;53334;51.976;20.144;2023-12-29T15:10:08;5.80;;;4.38;;
36651;SDS011;53334;51.976;20.144;2023-12-29T15:12:42;6.32;;;4.93;;
36651;SDS011;53334;51.976;20.144;2023-12-29T15:15:15;4.82;;;4.10;;
36651;SDS011;53334;51.976;20.144;2023-12-29T15:17:48;4.40;;;4.00;;
36651;SDS011;53334;51.976;20.144;2023-12-29T15:20:23;5.13;;;4.40;;
36651;SDS011;53334;51.976;20.144;2023-12-29T15:22:56;4.57;;;3.92;;
36651;SDS011;53334;51.976;20.144;2023-12-29T15:25:30;5.47;;;4.70;;
36651;SDS011;53334;51.976;20.144;2023-12-29T15:28:03;5.90;;;4.15;;
36651;SDS011;53334;51.976;20.144;2023-12-29T15:30:37;5.60;;;4.25;;
36651;SDS011;53334;51.976;20.144;2023-12-29T15:33:11;6.13;;;4.55;;
36651;SDS011;53334;51.976;20.144;2023-12-29T15:35:46;4.93;;;4.38;;
36651;SDS011;53334;51.976;20.144;2023-12-29T15:38:19;5.38;;;3.70;;